Schedule Details

Flight Number: CPX781
Departure: Taiwan Taoyuan International Airport (RCTP) at N/A
Arrival: Incheon International Airport (RKSI) at N/A
Route: PIANO1C PIANO L3 SALMI B576 SEL SEL1T


Current Weather Information
RCTP 152100Z 06014KT 9000 SCT006 BKN009 BKN015 18/17 Q1020 NOSIG RMK A3013
RKSI 152100Z 32011KT 7000 BKN030 M04/M09 Q1024 NOSIG

Route Map